Search for airport 
image banner adimage banner adimage banner ad
image banner ad

82PA - Frame Fld

Located in Candor, United States

ICAO - 82PA, IATA -

Data provided by Airmate  

General information

Coordinates: N40°23'48" W80°18'19"
Elevation is 1210 feet MSL.
Magnetic variation is -07° East
View others Airports in Pennsylvania

Operational data

Special qualification required
Current time UTC:
Current local time:
Weather at : KPIT - Pittsburgh Intl ( 12 km )
METAR: KPIT 091651Z 09010KT 4SM -RA BR BKN007 BKN038 OVC049 05/04 A2989 RMK AO2 SLP136 P0017 T00500039
TAF: KPIT 091455Z 0915/1018 08009KT P6SM VCSH BKN015 TEMPO 0915/0918 -SHRA BKN007 FM091800 07010KT 3SM SHRA OVC009 FM092200 01011KT 4SM -SHRA OVC006 FM100500 35008KT P6SM OVC005 FM101000 32008KT P6SM BKN010 FM101400 31009KT P6SM SCT015 BKN040
View NOTAMs / SUP AIP / TFR affecting this airport [VIEW]
Communications frequencies: [VIEW]

Runways:

RWY identifierQFULength (ft)Width (ft)SurfaceLDA (ft)
121200200GRASS
301200200GRASS

Airport contact information

Address: Candor United States

Satellite view of 82PA